Time;durP1;ratioP1;P1;durP2;ratioP2;P2;SDS_P1;SDS_P2;PMS_P1;PMS_P2;Temp;Humidity;BMP_temperature;BMP_pressure;BME280_temperature;BME280_humidity;BME280_pressure;Samples;Min_cycle;Max_cycle;Signal;HPM_P1;HPM_P2
2022/10/22 00:01:03;;;;;;;0.00;0.00;;;;;;;12.99;100.00;99782.78;5074948;28;20603;-74
2022/10/22 00:03:28;;;;;;;0.00;0.00;;;;;;;12.99;100.00;99794.53;5074881;28;20178;-74
2022/10/22 00:05:53;;;;;;;0.00;0.00;;;;;;;12.97;100.00;99804.25;5074060;28;20177;-73
2022/10/22 00:08:19;;;;;;;0.00;0.00;;;;;;;12.92;100.00;99807.22;5056128;28;20174;-73
2022/10/22 00:10:44;;;;;;;0.00;0.00;;;;;;;12.88;100.00;99809.88;5074035;28;20650;-73
2022/10/22 00:13:10;;;;;;;0.00;0.00;;;;;;;12.84;100.00;99816.34;5074508;28;20646;-74
2022/10/22 00:15:36;;;;;;;0.33;0.33;;;;;;;12.84;100.00;99814.41;5073862;28;20203;-73
2022/10/22 00:18:01;;;;;;;0.37;0.37;;;;;;;12.98;100.00;99820.38;5073557;28;20197;-73
2022/10/22 00:20:26;;;;;;;0.47;0.47;;;;;;;13.01;100.00;99816.94;5074212;28;20198;-73
2022/10/22 00:22:52;;;;;;;0.30;0.30;;;;;;;13.07;100.00;99809.28;5074241;28;20167;-74
2022/10/22 00:25:17;;;;;;;1.10;0.73;;;;;;;13.12;100.00;99803.56;5074193;28;20227;-73
2022/10/22 00:27:42;;;;;;;0.00;0.00;;;;;;;13.23;100.00;99795.69;5073777;28;20182;-75
2022/10/22 00:30:09;;;;;;;22.47;0.97;;;;;;;13.29;100.00;99797.06;5076532;28;20178;-74
2022/10/22 00:32:35;;;;;;;0.10;0.10;;;;;;;13.27;100.00;99794.66;5056697;28;20206;-75
2022/10/22 00:35:00;;;;;;;0.53;0.50;;;;;;;13.20;100.00;99799.16;5074084;28;20674;-75
2022/10/22 00:37:25;;;;;;;0.23;0.23;;;;;;;13.26;100.00;99805.97;5073563;28;20179;-76
2022/10/22 00:39:51;;;;;;;0.30;0.30;;;;;;;13.17;100.00;99808.03;5073794;28;20256;-74
2022/10/22 00:42:22;;;;;;;0.00;0.00;;;;;;;13.16;100.00;99826.41;5073407;28;20217;-74
2022/10/22 00:45:09;;;;;;;0.40;0.37;;;;;;;13.10;100.00;99827.78;5073712;28;20508;-74
2022/10/22 00:47:39;;;;;;;0.30;0.30;;;;;;;13.16;100.00;99812.69;5073356;28;20190;-74
2022/10/22 00:50:11;;;;;;;0.00;0.00;;;;;;;13.22;100.00;99807.81;5073663;28;20429;-74
2022/10/22 00:52:37;;;;;;;0.00;0.00;;;;;;;13.18;100.00;99812.38;5073578;28;20171;-74
2022/10/22 00:55:04;;;;;;;0.00;0.00;;;;;;;13.11;100.00;99808.25;5073584;28;20175;-75
2022/10/22 00:57:30;;;;;;;0.20;0.20;;;;;;;13.07;100.00;99826.53;5072879;28;20183;-77
2022/10/22 00:59:56;;;;;;;0.20;0.20;;;;;;;13.05;100.00;99823.34;5072550;28;20181;-74
2022/10/22 01:02:22;;;;;;;0.00;0.00;;;;;;;13.07;100.00;99832.03;5071470;28;20194;-75
2022/10/22 01:04:47;;;;;;;0.00;0.00;;;;;;;13.13;100.00;99824.34;5066534;28;20363;-75
2022/10/22 01:07:19;;;;;;;0.00;0.00;;;;;;;13.11;100.00;99811.00;5073220;28;20178;-75
2022/10/22 01:09:54;;;;;;;0.00;0.00;;;;;;;13.21;100.00;99803.47;5073231;28;20265;-74
2022/10/22 01:12:43;;;;;;;0.00;0.00;;;;;;;13.20;100.00;99799.94;5073430;28;20170;-75
2022/10/22 01:15:41;;;;;;;0.00;0.00;;;;;;;13.33;100.00;99797.97;5073257;28;20298;-75
2022/10/22 01:18:14;;;;;;;0.03;0.03;;;;;;;13.36;100.00;99803.56;5056797;28;20214;-75
2022/10/22 01:21:21;;;;;;;5.00;0.80;;;;;;;13.40;100.00;99807.22;5073093;28;20232;-75
2022/10/22 01:24:12;;;;;;;0.00;0.00;;;;;;;13.38;100.00;99822.44;5044247;28;20645;-75
2022/10/22 01:26:59;;;;;;;11.10;1.50;;;;;;;13.35;100.00;99829.41;5054405;28;20213;-75
2022/10/22 01:29:37;;;;;;;0.20;0.20;;;;;;;13.48;100.00;99832.94;5072961;28;20166;-74
2022/10/22 01:32:09;;;;;;;1.90;0.40;;;;;;;13.47;100.00;99820.38;5072730;28;20167;-74
2022/10/22 01:34:39;;;;;;;0.50;0.50;;;;;;;13.49;100.00;99823.56;5073044;28;20189;-74
2022/10/22 01:37:06;;;;;;;1.70;1.60;;;;;;;13.59;100.00;99822.25;5072769;28;20177;-74
2022/10/22 01:39:35;;;;;;;0.80;0.60;;;;;;;13.59;100.00;99833.25;5072747;28;20183;-74
2022/10/22 01:42:00;;;;;;;0.50;0.50;;;;;;;13.59;100.00;99836.00;5072869;28;20198;-74
2022/10/22 01:44:32;;;;;;;1.90;1.63;;;;;;;13.62;100.00;99830.63;5072334;28;20185;-74
2022/10/22 01:47:26;;;;;;;1.17;1.07;;;;;;;13.62;100.00;99825.13;5072238;28;20170;-75
2022/10/22 01:49:54;;;;;;;0.57;0.57;;;;;;;13.68;100.00;99814.72;5067295;28;20294;-75
2022/10/22 01:52:35;;;;;;;0.00;0.00;;;;;;;13.69;100.00;99819.84;5054320;28;20646;-75
2022/10/22 01:55:35;;;;;;;0.00;0.00;;;;;;;13.65;100.00;99802.47;5072111;28;20246;-74
2022/10/22 01:58:18;;;;;;;0.00;0.00;;;;;;;13.69;100.00;99811.59;5071861;28;20191;-75
2022/10/22 02:00:54;;;;;;;0.00;0.00;;;;;;;13.73;100.00;99819.94;5071993;28;20198;-76
2022/10/22 02:03:27;;;;;;;1.93;0.93;;;;;;;13.67;100.00;99818.59;5071515;28;20170;-74
2022/10/22 02:05:58;;;;;;;1.03;0.57;;;;;;;13.61;100.00;99823.53;5053941;28;20175;-75
2022/10/22 02:08:28;;;;;;;0.37;0.33;;;;;;;13.61;100.00;99818.06;5072074;28;20484;-74
2022/10/22 02:10:54;;;;;;;0.20;0.10;;;;;;;13.64;100.00;99820.09;5071858;28;20179;-75
2022/10/22 02:13:31;;;;;;;0.77;0.77;;;;;;;13.66;100.00;99822.50;5071867;28;20174;-75
2022/10/22 02:15:58;;;;;;;0.77;0.77;;;;;;;13.70;100.00;99821.44;5071747;28;20177;-75
2022/10/22 02:18:28;;;;;;;0.50;0.50;;;;;;;13.64;100.00;99831.06;5071469;28;20564;-74
2022/10/22 02:20:54;;;;;;;0.97;0.87;;;;;;;13.63;100.00;99829.47;5071710;28;20194;-75
2022/10/22 02:23:20;;;;;;;5.30;0.90;;;;;;;13.64;100.00;99827.53;5071702;28;20232;-75
2022/10/22 02:25:50;;;;;;;1.67;1.50;;;;;;;13.64;100.00;99825.59;5071375;28;20189;-75
2022/10/22 02:28:20;;;;;;;0.87;0.87;;;;;;;13.61;100.00;99823.53;5053578;28;20179;-75
2022/10/22 02:30:52;;;;;;;1.60;1.47;;;;;;;13.59;100.00;99823.06;5071726;28;20202;-74
2022/10/22 02:33:39;;;;;;;1.00;0.93;;;;;;;13.57;100.00;99814.38;5071949;28;20163;-74
2022/10/22 02:36:06;;;;;;;1.23;1.07;;;;;;;13.59;100.00;99831.31;5071161;28;20171;-74
2022/10/22 02:38:34;;;;;;;0.67;0.67;;;;;;;13.61;100.00;99814.50;5071106;28;20185;-75
2022/10/22 02:40:59;;;;;;;0.53;0.53;;;;;;;13.63;100.00;99823.19;5053288;28;20199;-74
2022/10/22 02:43:24;;;;;;;0.83;0.80;;;;;;;13.63;100.00;99832.22;5071220;28;20265;-74
2022/10/22 02:45:50;;;;;;;1.00;1.00;;;;;;;13.64;100.00;99831.06;5071346;28;20175;-74
2022/10/22 02:48:16;;;;;;;0.70;0.70;;;;;;;13.58;100.00;99846.16;5071024;28;20182;-75
2022/10/22 02:50:41;;;;;;;1.10;1.10;;;;;;;13.60;100.00;99851.34;5071099;28;20191;-73
2022/10/22 02:53:06;;;;;;;1.50;1.10;;;;;;;13.59;100.00;99844.22;5071370;28;20634;-73
2022/10/22 02:55:31;;;;;;;1.17;1.07;;;;;;;13.58;100.00;99842.63;5071093;28;20320;-72
2022/10/22 02:57:57;;;;;;;0.97;0.97;;;;;;;13.60;100.00;99843.91;5070656;28;20186;-73
2022/10/22 03:00:22;;;;;;;3.80;1.00;;;;;;;13.63;100.00;99848.69;5070877;28;20201;-73
2022/10/22 03:02:47;;;;;;;1.17;1.17;;;;;;;13.60;100.00;99854.88;5071061;28;20669;-73
2022/10/22 03:05:13;;;;;;;1.07;0.97;;;;;;;13.68;100.00;99861.38;5070892;28;20174;-73
2022/10/22 03:07:38;;;;;;;1.60;1.50;;;;;;;13.74;100.00;99859.19;5070677;28;20200;-73
2022/10/22 03:10:04;;;;;;;0.73;0.73;;;;;;;13.77;100.00;99858.50;5071090;28;20190;-72
2022/10/22 03:12:29;;;;;;;1.00;1.00;;;;;;;13.71;100.00;99860.66;5070837;28;20618;-73
2022/10/22 03:14:55;;;;;;;0.27;0.27;;;;;;;13.72;100.00;99861.47;5070119;28;20174;-73
2022/10/22 03:17:20;;;;;;;0.80;0.80;;;;;;;13.75;100.00;99863.53;5070216;28;20236;-73
2022/10/22 03:19:45;;;;;;;0.87;0.87;;;;;;;13.75;100.00;99869.84;5070901;28;20177;-73
2022/10/22 03:22:22;;;;;;;0.20;0.20;;;;;;;13.69;100.00;99872.00;5071040;28;20214;-73
2022/10/22 03:24:51;;;;;;;0.80;0.80;;;;;;;13.64;100.00;99865.97;5071111;28;20630;-72
2022/10/22 03:27:20;;;;;;;1.00;0.97;;;;;;;13.62;100.00;99857.28;5070410;28;20277;-72
2022/10/22 03:29:48;;;;;;;1.33;0.70;;;;;;;13.61;100.00;99861.16;5070702;28;20228;-73
2022/10/22 03:32:13;;;;;;;0.57;0.57;;;;;;;13.63;100.00;99859.69;5070979;28;20186;-73
2022/10/22 03:34:38;;;;;;;0.83;0.83;;;;;;;13.61;100.00;99858.44;5070746;28;20660;-73
2022/10/22 03:37:04;;;;;;;0.43;0.43;;;;;;;13.63;100.00;99862.41;5070279;28;20178;-73
2022/10/22 03:39:32;;;;;;;1.07;1.07;;;;;;;13.61;100.00;99861.97;5070709;28;20705;-72
2022/10/22 03:41:57;;;;;;;1.13;1.13;;;;;;;13.62;100.00;99857.28;5070788;28;20218;-72
2022/10/22 03:44:23;;;;;;;1.43;1.33;;;;;;;13.63;100.00;99865.16;5070585;28;20526;-72
2022/10/22 03:46:48;;;;;;;0.60;0.60;;;;;;;13.62;100.00;99869.06;5070223;28;20216;-73
2022/10/22 03:49:14;;;;;;;0.73;0.73;;;;;;;13.62;100.00;99877.28;5052412;28;20187;-72
2022/10/22 03:51:39;;;;;;;1.73;1.63;;;;;;;13.65;100.00;99878.53;5070523;28;20266;-73
2022/10/22 03:54:05;;;;;;;1.10;1.10;;;;;;;13.65;100.00;99882.09;5070539;28;20658;-73
2022/10/22 03:56:30;;;;;;;0.70;0.70;;;;;;;13.64;100.00;99879.69;5070320;28;20174;-73
2022/10/22 03:58:57;;;;;;;1.53;1.00;;;;;;;13.65;100.00;99887.56;5070272;28;20692;-73
2022/10/22 04:01:23;;;;;;;1.00;0.90;;;;;;;13.64;100.00;99899.69;5070198;28;20198;-73
2022/10/22 04:03:49;;;;;;;6.97;1.60;;;;;;;13.63;100.00;99895.34;5070238;28;20669;-73
2022/10/22 04:06:15;;;;;;;0.83;0.83;;;;;;;13.63;100.00;99884.38;5070423;28;20175;-72
2022/10/22 04:08:42;;;;;;;0.20;0.20;;;;;;;13.62;100.00;99892.97;5070285;28;20179;-73
2022/10/22 04:11:08;;;;;;;0.73;0.73;;;;;;;13.61;100.00;99894.91;5070313;28;20683;-72
2022/10/22 04:13:34;;;;;;;0.47;0.40;;;;;;;13.62;100.00;99899.25;5070233;28;20171;-73
2022/10/22 04:16:10;;;;;;;0.30;0.30;;;;;;;13.62;100.00;99884.72;5052081;28;20184;-73
2022/10/22 04:18:37;;;;;;;1.03;0.60;;;;;;;13.57;100.00;99876.72;5051952;28;20162;-72
2022/10/22 04:21:04;;;;;;;0.63;0.63;;;;;;;13.57;100.00;99883.00;5070243;28;20563;-73
2022/10/22 04:23:29;;;;;;;0.10;0.10;;;;;;;13.58;100.00;99889.28;5070285;28;20178;-72
2022/10/22 04:25:59;;;;;;;0.00;0.00;;;;;;;13.58;100.00;99886.53;5071322;28;20181;-73
2022/10/22 04:28:25;;;;;;;0.00;0.00;;;;;;;13.35;100.00;99894.47;5075156;28;20239;-73
2022/10/22 04:30:50;;;;;;;0.00;0.00;;;;;;;13.35;100.00;99902.69;5083607;28;20171;-73
2022/10/22 04:33:15;;;;;;;0.00;0.00;;;;;;;13.43;100.00;99910.00;5074675;28;20177;-73
2022/10/22 04:35:41;;;;;;;0.20;0.20;;;;;;;13.50;100.00;99904.75;5073781;28;20677;-73
2022/10/22 04:38:06;;;;;;;0.20;0.20;;;;;;;13.57;100.00;99915.13;5073615;28;20177;-73
2022/10/22 04:40:31;;;;;;;0.30;0.30;;;;;;;13.60;100.00;99919.97;5073670;28;20214;-73
2022/10/22 04:42:57;;;;;;;0.40;0.40;;;;;;;13.58;100.00;99911.25;5073615;28;20182;-72
2022/10/22 04:45:22;;;;;;;0.47;0.40;;;;;;;13.65;100.00;99912.28;5073647;28;20181;-73
2022/10/22 04:47:47;;;;;;;0.00;0.00;;;;;;;13.67;100.00;99914.69;5073462;28;20215;-73
2022/10/22 04:50:12;;;;;;;0.00;0.00;;;;;;;13.58;100.00;99925.78;5073522;28;20179;-73
2022/10/22 04:52:38;;;;;;;0.00;0.00;;;;;;;13.56;100.00;99925.31;5073484;28;20630;-73
2022/10/22 04:55:04;;;;;;;0.00;0.00;;;;;;;13.58;100.00;99924.97;5073304;28;20700;-73
2022/10/22 04:57:30;;;;;;;0.00;0.00;;;;;;;13.19;100.00;99918.25;5073097;28;20197;-73
2022/10/22 04:59:55;;;;;;;0.00;0.00;;;;;;;13.09;100.00;99920.25;5073301;28;20186;-74
2022/10/22 05:02:20;;;;;;;0.00;0.00;;;;;;;12.99;100.00;99917.13;5073164;28;20235;-73
2022/10/22 05:04:46;;;;;;;0.00;0.00;;;;;;;12.84;100.00;99910.38;5073304;28;20178;-73
2022/10/22 05:07:11;;;;;;;0.00;0.00;;;;;;;12.77;100.00;99904.66;5072988;28;20179;-73
2022/10/22 05:09:36;;;;;;;0.00;0.00;;;;;;;12.71;100.00;99908.72;5055008;28;20557;-74
2022/10/22 05:12:02;;;;;;;0.00;0.00;;;;;;;12.76;100.00;99911.28;5055158;28;20194;-73
2022/10/22 05:14:27;;;;;;;0.00;0.00;;;;;;;12.91;100.00;99916.09;5073037;28;20174;-74
2022/10/22 05:16:53;;;;;;;0.00;0.00;;;;;;;12.98;100.00;99913.59;5072762;28;20277;-74
2022/10/22 05:19:28;;;;;;;0.00;0.00;;;;;;;13.14;100.00;99913.72;5072728;28;20181;-73
2022/10/22 05:22:00;;;;;;;0.67;0.23;;;;;;;13.15;100.00;99923.56;5054765;28;20202;-73
2022/10/22 05:24:27;;;;;;;0.00;0.00;;;;;;;13.16;100.00;99929.84;5073037;28;20179;-73
2022/10/22 05:26:53;;;;;;;0.00;0.00;;;;;;;13.11;100.00;99923.44;5072654;28;20206;-73
2022/10/22 05:29:20;;;;;;;0.00;0.00;;;;;;;13.08;100.00;99929.63;5072831;28;20278;-73
2022/10/22 05:31:45;;;;;;;2.30;2.10;;;;;;;13.05;100.00;99930.31;5072701;28;20174;-73
2022/10/22 05:34:11;;;;;;;15.63;0.70;;;;;;;13.08;100.00;99931.56;5072482;28;20205;-73
2022/10/22 05:36:36;;;;;;;0.30;0.13;;;;;;;13.12;100.00;99926.97;5072465;28;20178;-73
2022/10/22 05:39:02;;;;;;;0.20;0.20;;;;;;;13.16;100.00;99938.06;5071578;28;20197;-73
2022/10/22 05:41:28;;;;;;;0.00;0.00;;;;;;;13.17;100.00;99937.75;5072448;28;20198;-73
2022/10/22 05:43:55;;;;;;;0.50;0.50;;;;;;;13.16;100.00;99940.81;5072485;28;20179;-73
2022/10/22 05:46:22;;;;;;;0.00;0.00;;;;;;;13.17;100.00;99935.00;5072250;28;20261;-73
2022/10/22 05:49:06;;;;;;;1.07;1.07;;;;;;;13.18;100.00;99938.56;5072157;28;20197;-73
2022/10/22 05:51:33;;;;;;;0.00;0.00;;;;;;;13.19;100.00;99940.97;5072312;28;20174;-73
2022/10/22 05:54:04;;;;;;;0.00;0.00;;;;;;;13.20;100.00;99939.03;5072590;28;20232;-74
2022/10/22 05:56:31;;;;;;;0.00;0.00;;;;;;;13.18;100.00;99939.38;5070957;28;20177;-72
2022/10/22 05:58:57;;;;;;;0.20;0.20;;;;;;;13.15;100.00;99942.75;5067151;28;20673;-72
2022/10/22 06:01:31;;;;;;;0.60;0.60;;;;;;;13.13;100.00;99949.72;5071601;28;20532;-73
2022/10/22 06:03:59;;;;;;;0.70;0.70;;;;;;;13.09;100.00;99950.41;5071712;28;20321;-74
2022/10/22 06:06:29;;;;;;;6.80;1.93;;;;;;;13.10;100.00;99946.53;5071660;28;20645;-74
2022/10/22 06:08:58;;;;;;;0.30;0.30;;;;;;;13.14;100.00;99957.63;5072202;28;20258;-73
2022/10/22 06:11:24;;;;;;;0.00;0.00;;;;;;;13.13;100.00;99960.69;5072091;28;20166;-74
2022/10/22 06:13:50;;;;;;;0.17;0.10;;;;;;;13.17;100.00;99961.66;5071767;28;20196;-74
2022/10/22 06:16:16;;;;;;;1.57;1.47;;;;;;;13.19;100.00;99970.34;5071769;28;20170;-74
2022/10/22 06:18:41;;;;;;;12.63;1.23;;;;;;;13.23;100.00;99971.28;5071446;28;20170;-74
2022/10/22 06:21:12;;;;;;;0.90;0.90;;;;;;;13.25;100.00;99979.97;5071640;28;20202;-74
2022/10/22 06:23:38;;;;;;;0.90;0.90;;;;;;;13.26;100.00;99978.81;5071747;28;20488;-73
2022/10/22 06:26:05;;;;;;;1.03;1.03;;;;;;;13.28;100.00;99982.81;5071431;28;20621;-73
2022/10/22 06:28:31;;;;;;;0.53;0.53;;;;;;;13.29;100.00;99981.66;5071528;28;20722;-73
2022/10/22 06:30:58;;;;;;;0.33;0.33;;;;;;;13.32;100.00;99983.75;5071489;28;20171;-73
2022/10/22 06:33:24;;;;;;;0.83;0.77;;;;;;;13.30;100.00;99988.75;5071531;28;20209;-73
2022/10/22 06:35:50;;;;;;;0.90;0.90;;;;;;;13.34;100.00;99995.19;5053387;28;20167;-73
2022/10/22 06:38:15;;;;;;;1.87;1.77;;;;;;;13.40;100.00;100002.03;5071164;28;20627;-73
2022/10/22 06:40:43;;;;;;;1.10;1.10;;;;;;;13.46;100.00;100016.34;5071260;28;20198;-73
2022/10/22 06:43:13;;;;;;;2.03;1.93;;;;;;;13.46;100.00;100018.31;5071406;28;20181;-73
2022/10/22 06:45:39;;;;;;;5.97;2.03;;;;;;;13.49;100.00;100023.91;5071135;28;20201;-74
2022/10/22 06:48:05;;;;;;;2.90;1.87;;;;;;;13.54;100.00;100026.41;5071311;28;20206;-73
2022/10/22 06:50:32;;;;;;;1.07;1.07;;;;;;;13.55;100.00;100029.97;5070995;28;20213;-73
2022/10/22 06:52:57;;;;;;;1.07;1.03;;;;;;;13.56;100.00;100031.56;5071056;28;20177;-73
2022/10/22 06:55:23;;;;;;;0.40;0.40;;;;;;;13.58;100.00;100032.03;5071113;28;20654;-73
2022/10/22 06:57:48;;;;;;;0.60;0.60;;;;;;;13.57;100.00;100036.72;5070589;28;20247;-73
2022/10/22 07:00:14;;;;;;;1.20;1.10;;;;;;;13.57;100.00;100036.72;5071316;28;20173;-73
2022/10/22 07:02:39;;;;;;;4.27;1.37;;;;;;;13.54;100.00;100044.84;5071091;28;20250;-73
2022/10/22 07:05:05;;;;;;;0.57;0.40;;;;;;;13.55;100.00;100043.69;5070957;28;20273;-73
2022/10/22 07:07:30;;;;;;;0.50;0.50;;;;;;;13.60;100.00;100054.47;5070931;28;20200;-73
2022/10/22 07:09:55;;;;;;;0.00;0.00;;;;;;;13.61;100.00;100059.59;5071088;28;20163;-73
2022/10/22 07:12:20;;;;;;;0.90;0.70;;;;;;;13.61;100.00;100065.09;5052959;28;20457;-73
2022/10/22 07:14:47;;;;;;;0.43;0.43;;;;;;;13.64;100.00;100071.84;5070865;28;20195;-73
2022/10/22 07:17:12;;;;;;;0.67;0.67;;;;;;;13.64;100.00;100060.88;5070510;28;20186;-73
2022/10/22 07:19:37;;;;;;;0.00;0.00;;;;;;;13.64;100.00;100055.38;5070424;28;20631;-73
2022/10/22 07:22:03;;;;;;;0.50;0.50;;;;;;;13.63;100.00;100062.00;5070915;28;20213;-73
2022/10/22 07:24:28;;;;;;;22.10;1.57;;;;;;;13.59;100.00;100067.34;5070420;28;20187;-73
2022/10/22 07:26:54;;;;;;;0.83;0.83;;;;;;;13.59;100.00;100070.09;5070307;28;20179;-74
2022/10/22 07:29:19;;;;;;;8.70;1.20;;;;;;;13.58;100.00;100071.25;5070365;28;20175;-73
2022/10/22 07:31:44;;;;;;;0.60;0.60;;;;;;;13.61;100.00;100073.34;5070460;28;20175;-73
2022/10/22 07:34:09;;;;;;;0.00;0.00;;;;;;;13.62;100.00;100074.94;5070186;28;20576;-73
2022/10/22 07:36:35;;;;;;;0.00;0.00;;;;;;;13.67;100.00;100079.41;5051916;28;20178;-74
2022/10/22 07:39:01;;;;;;;0.00;0.00;;;;;;;13.72;100.00;100079.16;5070138;28;20182;-73
2022/10/22 07:41:28;;;;;;;0.53;0.53;;;;;;;13.75;100.00;100077.69;5068995;28;20206;-73
2022/10/22 07:43:53;;;;;;;0.10;0.10;;;;;;;13.86;100.00;100079.63;5060434;28;20266;-73
2022/10/22 07:46:19;;;;;;;0.03;0.03;;;;;;;13.98;100.00;100089.84;5066061;28;20274;-74
2022/10/22 07:48:44;;;;;;;0.47;0.20;;;;;;;14.02;100.00;100088.00;5065762;28;20479;-73
2022/10/22 07:51:10;;;;;;;2.47;0.77;;;;;;;14.05;100.00;100087.34;5069979;28;20721;-73
2022/10/22 07:53:35;;;;;;;0.00;0.00;;;;;;;14.09;100.00;100093.72;5070149;28;20182;-73
2022/10/22 07:56:00;;;;;;;0.30;0.30;;;;;;;14.12;100.00;100090.28;5069904;28;20641;-74
2022/10/22 07:58:26;;;;;;;0.10;0.10;;;;;;;14.16;100.00;100090.41;5069989;28;20692;-73
2022/10/22 08:00:54;;;;;;;0.50;0.50;;;;;;;14.11;100.00;100096.13;5070852;28;20238;-74
2022/10/22 08:03:19;;;;;;;1.27;0.57;;;;;;;14.13;100.00;100102.88;5073583;28;20902;-73
2022/10/22 08:05:45;;;;;;;0.10;0.10;;;;;;;14.15;100.00;100097.84;5073836;28;20183;-73
2022/10/22 08:08:13;;;;;;;0.20;0.20;;;;;;;14.18;100.00;100096.38;5073886;28;20524;-73
2022/10/22 08:10:38;;;;;;;0.00;0.00;;;;;;;14.23;100.00;100093.38;5070249;28;20592;-73
2022/10/22 08:13:04;;;;;;;0.67;0.67;;;;;;;14.25;100.00;100105.63;5073631;28;20174;-73
2022/10/22 08:15:30;;;;;;;0.40;0.40;;;;;;;14.22;100.00;100111.81;5073602;28;20204;-73
2022/10/22 08:17:55;;;;;;;0.60;0.60;;;;;;;14.24;100.00;100108.72;5073149;28;20182;-73
2022/10/22 08:20:21;;;;;;;1.23;1.13;;;;;;;14.24;100.00;100115.03;5073868;28;20200;-73
2022/10/22 08:22:46;;;;;;;0.40;0.40;;;;;;;14.28;100.00;100109.63;5073576;28;20190;-73
2022/10/22 08:25:12;;;;;;;0.77;0.77;;;;;;;14.42;100.00;100118.31;5073634;28;20201;-73
2022/10/22 08:27:37;;;;;;;18.13;1.30;;;;;;;14.52;100.00;100117.09;5073569;28;20186;-76
2022/10/22 08:30:04;;;;;;;8.57;1.23;;;;;;;14.59;100.00;100115.34;5073451;28;20211;-73
2022/10/22 08:32:29;;;;;;;1.97;1.47;;;;;;;14.66;100.00;100122.22;5069128;28;20190;-72
2022/10/22 08:34:55;;;;;;;0.53;0.53;;;;;;;14.76;100.00;100114.31;5073041;28;20524;-72
2022/10/22 08:37:20;;;;;;;1.50;1.37;;;;;;;14.78;100.00;100112.00;5072884;28;20189;-74
2022/10/22 08:39:45;;;;;;;0.47;0.47;;;;;;;14.78;100.00;100116.72;5055366;28;20178;-73
2022/10/22 08:42:13;;;;;;;3.50;3.40;;;;;;;14.81;100.00;100116.00;5073168;28;20677;-73
2022/10/22 08:44:59;;;;;;;1.23;0.60;;;;;;;14.93;100.00;100117.94;5055226;28;20491;-73
2022/10/22 08:47:59;;;;;;;4.50;1.30;;;;;;;15.09;100.00;100127.84;5054838;28;20174;-73
2022/10/22 08:50:45;;;;;;;3.83;1.27;;;;;;;15.20;100.00;100119.09;5073146;28;20181;-72
2022/10/22 08:53:19;;;;;;;0.57;0.57;;;;;;;15.20;100.00;100119.91;5072869;28;20608;-74
2022/10/22 08:55:45;;;;;;;0.00;0.00;;;;;;;15.29;100.00;100122.50;5054791;28;20174;-73
2022/10/22 08:58:26;;;;;;;0.97;0.97;;;;;;;15.35;100.00;100124.66;5054790;28;20221;-72
2022/10/22 09:00:59;;;;;;;0.10;0.10;;;;;;;15.39;100.00;100122.00;5073020;28;20670;-73
2022/10/22 09:03:44;;;;;;;5.03;1.00;;;;;;;15.46;100.00;100116.66;5072314;28;20178;-73
2022/10/22 09:06:34;;;;;;;0.80;0.80;;;;;;;15.53;100.00;100121.59;5072906;28;20182;-72
2022/10/22 09:09:08;;;;;;;0.60;0.60;;;;;;;15.61;100.00;100129.69;5062758;28;20190;-73
2022/10/22 09:11:37;;;;;;;1.13;1.03;;;;;;;15.63;100.00;100134.88;5073043;28;20182;-73
2022/10/22 09:14:04;;;;;;;0.00;0.00;;;;;;;15.68;100.00;100127.13;5070416;28;20661;-72
2022/10/22 09:16:44;;;;;;;0.93;0.93;;;;;;;15.79;100.00;100132.13;5071266;28;20270;-72
2022/10/22 09:19:28;;;;;;;0.90;0.90;;;;;;;15.78;100.00;100131.34;5054788;28;20519;-73
2022/10/22 09:22:15;;;;;;;0.20;0.20;;;;;;;15.82;100.00;100134.19;5053750;28;20263;-72
2022/10/22 09:24:54;;;;;;;0.70;0.70;;;;;;;15.85;100.00;100126.00;5072009;28;20182;-73
2022/10/22 09:27:26;;;;;;;0.20;0.13;;;;;;;15.86;100.00;100135.88;5072247;28;20178;-73
2022/10/22 09:29:51;;;;;;;0.00;0.00;;;;;;;15.92;100.00;100139.97;5072614;28;20193;-73
2022/10/22 09:32:17;;;;;;;0.80;0.80;;;;;;;15.96;100.00;100135.34;5072766;28;20204;-71
2022/10/22 09:34:44;;;;;;;1.27;1.20;;;;;;;16.00;100.00;100127.16;5054651;28;20206;-71
2022/10/22 09:37:10;;;;;;;14.33;1.67;;;;;;;16.11;100.00;100135.69;5072368;28;20178;-73
2022/10/22 09:39:42;;;;;;;1.40;0.83;;;;;;;16.09;100.00;100135.25;5072672;28;20175;-71
2022/10/22 09:42:10;;;;;;;4.97;1.60;;;;;;;16.13;100.00;100134.19;5072212;28;20668;-71
2022/10/22 09:44:36;;;;;;;8.40;1.10;;;;;;;16.16;100.00;100136.22;5072414;28;20178;-71
2022/10/22 09:47:39;;;;;;;2.20;1.50;;;;;;;16.25;100.00;100147.06;5054019;28;20202;-70
2022/10/22 09:50:42;;;;;;;1.27;1.20;;;;;;;16.32;100.00;100158.25;5064289;28;20201;-71
2022/10/22 09:53:29;;;;;;;0.10;0.10;;;;;;;16.44;100.00;100152.66;5069123;28;20174;-70
2022/10/22 09:55:57;;;;;;;0.00;0.00;;;;;;;16.55;100.00;100155.66;5071838;28;20178;-71
2022/10/22 09:58:23;;;;;;;0.00;0.00;;;;;;;16.68;100.00;100154.44;5072099;28;20567;-71
2022/10/22 10:00:58;;;;;;;0.20;0.20;;;;;;;16.77;100.00;100152.25;5071957;28;20205;-71
2022/10/22 10:03:27;;;;;;;0.00;0.00;;;;;;;16.82;100.00;100159.47;5072159;28;20178;-71
2022/10/22 10:05:58;;;;;;;0.00;0.00;;;;;;;16.97;100.00;100163.34;5071776;28;20175;-71
2022/10/22 10:08:23;;;;;;;0.40;0.40;;;;;;;17.11;98.48;100166.41;5071994;28;20173;-71
2022/10/22 10:10:58;;;;;;;0.20;0.20;;;;;;;17.13;97.89;100169.59;5072041;28;20166;-71
2022/10/22 10:13:26;;;;;;;0.70;0.43;;;;;;;17.21;97.43;100183.22;5072475;28;20197;-70
2022/10/22 10:15:57;;;;;;;0.47;0.47;;;;;;;17.22;96.01;100182.03;5071781;28;20171;-70
2022/10/22 10:18:29;;;;;;;3.60;0.67;;;;;;;17.27;95.97;100185.66;5071792;28;20168;-71
2022/10/22 10:21:21;;;;;;;0.10;0.10;;;;;;;17.41;96.04;100175.72;5071692;28;20684;-71
2022/10/22 10:23:55;;;;;;;6.90;1.27;;;;;;;17.48;95.29;100172.28;5053494;28;20762;-72
2022/10/22 10:26:35;;;;;;;0.40;0.40;;;;;;;17.48;94.30;100183.34;5071359;28;20703;-71
2022/10/22 10:29:30;;;;;;;0.20;0.20;;;;;;;17.61;94.88;100179.25;5071794;28;20190;-71
2022/10/22 10:32:14;;;;;;;0.47;0.40;;;;;;;17.66;93.82;100186.47;5053771;28;20183;-71
2022/10/22 10:34:50;;;;;;;0.27;0.27;;;;;;;17.75;92.93;100187.84;5071525;28;20177;-71
2022/10/22 10:37:27;;;;;;;1.23;0.80;;;;;;;17.59;91.45;100184.34;5071429;28;20215;-72
2022/10/22 10:40:10;;;;;;;0.30;0.30;;;;;;;17.41;92.02;100185.97;5071597;28;20634;-71
2022/10/22 10:42:43;;;;;;;2.30;0.67;;;;;;;17.36;92.52;100183.47;5068003;28;20206;-71
2022/10/22 10:45:16;;;;;;;0.63;0.63;;;;;;;17.43;92.95;100178.13;5053753;28;20590;-71
2022/10/22 10:48:09;;;;;;;0.10;0.10;;;;;;;17.54;92.79;100185.44;5070934;28;20175;-71
2022/10/22 10:50:58;;;;;;;0.43;0.43;;;;;;;17.71;91.86;100189.75;5071390;28;20550;-71
2022/10/22 10:53:44;;;;;;;4.13;0.83;;;;;;;17.69;91.02;100191.28;5070812;28;20527;-70
2022/10/22 10:56:46;;;;;;;0.73;0.73;;;;;;;17.46;91.30;100193.94;5070575;28;20170;-71
2022/10/22 10:59:17;;;;;;;3.77;0.67;;;;;;;17.45;91.43;100192.34;5070740;28;20634;-71
2022/10/22 11:01:50;;;;;;;0.20;0.20;;;;;;;17.48;91.13;100197.94;5070986;28;20206;-70
2022/10/22 11:04:45;;;;;;;1.87;1.73;;;;;;;17.52;90.74;100192.50;5070283;28;20175;-71
2022/10/22 11:07:16;;;;;;;0.60;0.60;;;;;;;17.45;90.05;100198.69;5069309;28;20274;-72
2022/10/22 11:09:56;;;;;;;0.53;0.10;;;;;;;17.49;90.77;100207.03;5070870;28;20186;-71
2022/10/22 11:12:32;;;;;;;0.60;0.60;;;;;;;17.48;89.68;100205.44;5070709;28;20182;-71
2022/10/22 11:15:21;;;;;;;0.30;0.30;;;;;;;17.58;89.70;100212.34;5064461;28;20189;-73
2022/10/22 11:17:48;;;;;;;0.20;0.20;;;;;;;17.73;90.19;100208.72;5050142;28;20597;-73
2022/10/22 11:20:19;;;;;;;1.13;0.53;;;;;;;17.92;89.28;100205.13;5059994;28;20249;-72
2022/10/22 11:22:51;;;;;;;0.53;0.53;;;;;;;17.73;87.96;100208.72;5070769;28;20587;-72
2022/10/22 11:25:31;;;;;;;0.20;0.20;;;;;;;17.62;88.32;100211.25;5052888;28;20637;-72
2022/10/22 11:28:13;;;;;;;0.50;0.50;;;;;;;17.56;88.74;100212.72;5065878;28;20472;-73
2022/10/22 11:30:41;;;;;;;0.10;0.10;;;;;;;17.48;89.49;100209.00;5068912;28;20170;-72
2022/10/22 11:33:15;;;;;;;1.23;0.70;;;;;;;17.39;89.15;100204.88;5070775;28;20170;-74
2022/10/22 11:35:43;;;;;;;0.00;0.00;;;;;;;17.32;89.43;100201.94;5069747;28;20260;-74